createdAt,value
2023-05-14T00:01:38.244Z,12.20
2023-05-14T00:06:44.053Z,12.20
2023-05-14T00:11:52.099Z,11.40
2023-05-14T00:16:57.463Z,12.87
2023-05-14T00:22:02.892Z,12.13
2023-05-14T00:27:11.085Z,11.73
2023-05-14T00:32:17.928Z,10.03
2023-05-14T00:37:23.388Z,12.15
2023-05-14T00:42:31.558Z,10.87
2023-05-14T00:47:37.155Z,10.43
2023-05-14T00:52:43.369Z,9.25
2023-05-14T00:57:52.264Z,7.95
2023-05-14T01:02:57.672Z,9.50
2023-05-14T01:08:10.954Z,12.00
2023-05-14T01:13:29.193Z,10.32
2023-05-14T01:18:36.182Z,14.77
2023-05-14T01:23:44.324Z,11.02
2023-05-14T01:28:52.044Z,12.15
2023-05-14T01:33:59.199Z,10.23
2023-05-14T01:39:09.778Z,9.88
2023-05-14T01:44:15.636Z,13.48
2023-05-14T01:49:22.921Z,8.33
2023-05-14T01:54:30.975Z,12.60
2023-05-14T01:59:36.375Z,8.82
2023-05-14T02:04:41.915Z,9.00
2023-05-14T02:09:49.937Z,8.85
2023-05-14T02:14:55.471Z,6.93
2023-05-14T02:20:00.949Z,6.73
2023-05-14T02:25:10.291Z,10.10
2023-05-14T02:30:15.989Z,7.77
2023-05-14T02:35:23.037Z,7.50
2023-05-14T02:40:31.313Z,8.70
2023-05-14T02:45:36.702Z,9.13
2023-05-14T02:50:42.057Z,11.07
2023-05-14T02:55:50.122Z,9.73
2023-05-14T03:00:55.949Z,9.30
2023-05-14T03:06:01.953Z,7.27
2023-05-14T03:11:09.988Z,10.55
2023-05-14T03:16:15.927Z,9.40
2023-05-14T03:21:21.520Z,9.87
2023-05-14T03:26:30.130Z,12.68
2023-05-14T03:31:35.619Z,11.73
2023-05-14T03:36:41.362Z,11.63
2023-05-14T03:41:49.705Z,10.40
2023-05-14T03:46:55.147Z,10.60
2023-05-14T03:52:01.082Z,10.10
2023-05-14T03:57:09.283Z,8.90
2023-05-14T04:02:14.699Z,12.13
2023-05-14T04:07:20.260Z,12.77
2023-05-14T04:12:32.193Z,10.02
2023-05-14T04:17:37.874Z,13.33
2023-05-14T04:22:43.276Z,9.00
2023-05-14T04:27:51.685Z,10.15
2023-05-14T04:32:57.667Z,10.73
2023-05-14T04:38:03.306Z,12.10
2023-05-14T04:43:11.304Z,11.45
2023-05-14T04:48:17.335Z,10.43
2023-05-14T04:53:22.788Z,10.40
2023-05-14T04:58:34.507Z,9.30
2023-05-14T05:03:40.581Z,12.53
2023-05-14T05:08:46.154Z,10.43
2023-05-14T05:13:54.344Z,11.88
2023-05-14T05:19:00.206Z,8.13
2023-05-14T05:24:08.066Z,11.00
2023-05-14T05:29:16.100Z,12.98
2023-05-14T05:34:21.852Z,12.38
2023-05-14T05:39:27.399Z,11.90
2023-05-14T05:44:35.729Z,9.68
2023-05-14T05:49:41.737Z,10.93
2023-05-14T05:54:47.248Z,10.67
2023-05-14T05:59:55.447Z,9.25
2023-05-14T06:05:00.947Z,12.18
2023-05-14T06:10:07.204Z,10.40
2023-05-14T06:15:15.641Z,12.95
2023-05-14T06:20:21.750Z,12.38
2023-05-14T06:25:27.484Z,10.87
2023-05-14T06:30:38.087Z,12.65
2023-05-14T06:35:43.607Z,13.52
2023-05-14T06:40:49.044Z,10.53
2023-05-14T06:45:57.529Z,18.58
2023-05-14T06:51:03.509Z,13.10
2023-05-14T06:56:08.993Z,12.80
2023-05-14T07:01:17.252Z,13.83
2023-05-14T07:06:22.728Z,11.25
2023-05-14T07:11:28.167Z,11.82
2023-05-14T07:16:36.204Z,13.07
2023-05-14T07:21:41.785Z,10.13
2023-05-14T07:26:47.166Z,11.55
2023-05-14T07:31:55.084Z,12.37
2023-05-14T07:37:00.563Z,16.15
2023-05-14T07:42:07.680Z,11.52
2023-05-14T07:47:15.901Z,9.43
2023-05-14T07:52:21.597Z,9.60
2023-05-14T07:57:27.050Z,10.20
2023-05-14T08:02:35.449Z,8.05
2023-05-14T08:07:41.567Z,8.90
2023-05-14T08:12:47.064Z,9.00
2023-05-14T08:17:55.123Z,8.50
2023-05-14T08:23:00.707Z,11.43
2023-05-14T08:28:06.185Z,10.15
2023-05-14T08:33:14.098Z,11.35
2023-05-14T08:38:19.483Z,7.53
2023-05-14T08:43:30.375Z,6.97
2023-05-14T08:48:38.897Z,8.20
2023-05-14T08:53:44.600Z,10.60
2023-05-14T08:58:50.111Z,10.87
2023-05-14T09:03:58.476Z,12.07
2023-05-14T09:09:04.226Z,10.38
2023-05-14T09:14:09.766Z,11.20
2023-05-14T09:19:19.519Z,10.45
2023-05-14T09:24:32.614Z,12.38
2023-05-14T09:29:38.255Z,9.50
2023-05-14T09:34:46.302Z,9.20
2023-05-14T09:39:55.083Z,9.02
2023-05-14T09:45:00.605Z,9.20
2023-05-14T09:50:10.556Z,7.13
2023-05-14T09:55:32.543Z,8.88
2023-05-14T10:00:38.841Z,8.27
2023-05-14T10:05:47.666Z,5.60
2023-05-14T10:10:54.315Z,4.03
2023-05-14T10:16:05.528Z,6.57
2023-05-14T10:21:14.270Z,5.63
2023-05-14T10:26:21.205Z,4.63
2023-05-14T10:31:48.892Z,4.40
2023-05-14T10:36:57.020Z,4.68
2023-05-14T10:42:02.726Z,3.43
2023-05-14T10:47:09.114Z,7.90
2023-05-14T10:52:19.892Z,3.83
2023-05-14T10:57:27.842Z,3.90
2023-05-14T11:02:37.064Z,5.60
2023-05-14T11:07:48.031Z,6.45
2023-05-14T11:12:54.649Z,3.47
2023-05-14T11:18:00.225Z,4.07
2023-05-14T11:23:09.001Z,3.75
2023-05-14T11:28:14.775Z,4.28
2023-05-14T11:33:20.609Z,6.83
2023-05-14T11:38:28.606Z,3.85
2023-05-14T11:43:34.079Z,2.88
2023-05-14T11:48:39.483Z,3.10
2023-05-14T11:53:49.893Z,4.55
2023-05-14T11:59:00.476Z,4.50
2023-05-14T12:04:07.633Z,3.33
2023-05-14T12:09:19.556Z,4.27
2023-05-14T12:14:26.650Z,3.22
2023-05-14T12:19:34.068Z,5.82
2023-05-14T12:24:42.257Z,3.10
2023-05-14T12:29:47.849Z,3.80
2023-05-14T12:34:54.002Z,5.95
2023-05-14T12:40:02.295Z,3.70
2023-05-14T12:45:09.219Z,18.90
2023-05-14T12:50:15.075Z,4.55
2023-05-14T12:55:23.552Z,4.80
2023-05-14T13:00:28.887Z,7.07
2023-05-14T13:05:34.247Z,3.30
2023-05-14T13:10:42.301Z,3.22
2023-05-14T13:15:48.792Z,2.80
2023-05-14T13:20:54.209Z,3.20
2023-05-14T13:26:03.584Z,4.38
2023-05-14T13:31:10.836Z,5.37
2023-05-14T13:36:17.643Z,4.57
2023-05-14T13:41:26.358Z,4.35
2023-05-14T13:46:31.898Z,3.43
2023-05-14T13:51:37.353Z,3.93
2023-05-14T13:56:45.575Z,2.80
2023-05-14T14:01:51.762Z,7.15
2023-05-14T14:06:57.490Z,2.73
2023-05-14T14:12:06.799Z,3.05
2023-05-14T14:17:12.273Z,3.97
2023-05-14T14:22:17.758Z,3.60
2023-05-14T14:27:26.122Z,4.28
2023-05-14T14:32:32.201Z,2.85
2023-05-14T14:37:37.630Z,4.50
2023-05-14T14:42:46.040Z,4.23
2023-05-14T14:47:52.401Z,5.32
2023-05-14T14:52:58.100Z,4.60
2023-05-14T14:58:06.164Z,4.40
2023-05-14T15:03:12.127Z,3.40
2023-05-14T15:08:18.196Z,2.97
2023-05-14T15:13:27.193Z,3.80
2023-05-14T15:18:32.857Z,4.38
2023-05-14T15:23:38.451Z,10.80
2023-05-14T15:28:46.583Z,3.60
2023-05-14T15:33:52.454Z,5.37
2023-05-14T15:38:57.928Z,3.15
2023-05-14T15:44:05.965Z,3.05
2023-05-14T15:49:11.456Z,4.30
2023-05-14T15:54:17.027Z,3.10
2023-05-14T15:59:26.413Z,4.30
2023-05-14T16:04:31.991Z,4.37
2023-05-14T16:09:37.431Z,4.57
2023-05-14T16:14:45.628Z,5.45
2023-05-14T16:19:51.975Z,4.27
2023-05-14T16:25:01.834Z,3.83
2023-05-14T16:30:12.520Z,5.55
2023-05-14T16:35:18.163Z,7.78
2023-05-14T16:40:24.377Z,4.30
2023-05-14T16:45:34.937Z,3.80
2023-05-14T16:50:40.491Z,3.08
2023-05-14T16:55:45.955Z,4.93
2023-05-14T17:00:53.949Z,6.60
2023-05-14T17:05:59.547Z,4.78
2023-05-14T17:11:06.145Z,5.77
2023-05-14T17:16:14.101Z,6.83
2023-05-14T17:21:19.209Z,5.70
2023-05-14T17:26:24.664Z,4.80
2023-05-14T17:31:32.846Z,6.80
2023-05-14T17:36:38.444Z,5.45
2023-05-14T17:41:44.630Z,4.95
2023-05-14T17:46:52.714Z,5.37
2023-05-14T17:51:58.444Z,6.97
2023-05-14T17:57:07.408Z,6.57
2023-05-14T18:02:15.949Z,4.33
2023-05-14T18:07:22.726Z,6.03
2023-05-14T18:12:29.316Z,6.00
2023-05-14T18:17:39.373Z,3.72
2023-05-14T18:22:44.992Z,4.60
2023-05-14T18:27:50.517Z,4.93
2023-05-14T18:33:00.291Z,3.08
2023-05-14T18:38:08.156Z,3.37
2023-05-14T18:43:14.821Z,4.25
2023-05-14T18:48:23.268Z,4.03
2023-05-14T18:53:29.470Z,3.03
2023-05-14T18:58:34.872Z,4.67
2023-05-14T19:03:45.169Z,4.85
2023-05-14T19:08:50.850Z,4.20
2023-05-14T19:13:56.569Z,2.90
2023-05-14T19:19:05.371Z,3.03
2023-05-14T19:24:11.383Z,3.55
2023-05-14T19:29:17.189Z,4.30
2023-05-14T19:34:25.838Z,3.10
2023-05-14T19:39:31.665Z,5.03
2023-05-14T19:44:37.291Z,3.37
2023-05-14T19:49:45.997Z,5.37
2023-05-14T19:54:52.602Z,3.90
2023-05-14T19:59:58.453Z,3.25
2023-05-14T20:05:07.195Z,5.07
2023-05-14T20:10:14.284Z,5.10
2023-05-14T20:15:20.376Z,4.28
2023-05-14T20:20:32.761Z,4.67
2023-05-14T20:25:41.146Z,6.32
2023-05-14T20:30:46.813Z,4.57
2023-05-14T20:35:54.884Z,4.07
2023-05-14T20:41:00.483Z,3.33
2023-05-14T20:46:07.617Z,3.67
2023-05-14T20:51:15.876Z,3.28
2023-05-14T20:56:21.506Z,5.90
2023-05-14T21:01:26.981Z,3.70
2023-05-14T21:06:35.008Z,8.40
2023-05-14T21:11:40.523Z,5.67
2023-05-14T21:16:45.965Z,3.92
2023-05-14T21:21:54.041Z,4.32
2023-05-14T21:27:00.066Z,5.20
2023-05-14T21:32:12.258Z,3.30
2023-05-14T21:37:21.329Z,4.63
2023-05-14T21:42:27.579Z,5.25
2023-05-14T21:47:34.007Z,5.00
2023-05-14T21:52:45.597Z,5.65
2023-05-14T21:57:51.233Z,4.72
2023-05-14T22:02:56.693Z,4.63
2023-05-14T22:08:05.018Z,6.22
2023-05-14T22:13:12.569Z,4.70
2023-05-14T22:18:18.411Z,5.00
2023-05-14T22:23:26.502Z,6.55
2023-05-14T22:28:31.830Z,5.10
2023-05-14T22:33:38.283Z,7.93
2023-05-14T22:38:46.451Z,6.77
2023-05-14T22:43:51.821Z,6.35
2023-05-14T22:48:57.146Z,7.95
2023-05-14T22:54:05.223Z,7.57
2023-05-14T22:59:10.560Z,9.88
2023-05-14T23:04:17.226Z,8.98
2023-05-14T23:09:25.511Z,8.17
2023-05-14T23:14:30.971Z,6.97
2023-05-14T23:19:37.065Z,9.32
2023-05-14T23:24:45.283Z,9.33
2023-05-14T23:29:50.881Z,9.13
2023-05-14T23:34:56.424Z,8.23
2023-05-14T23:40:05.157Z,7.05
2023-05-14T23:45:11.865Z,6.97
2023-05-14T23:50:17.386Z,10.30
2023-05-14T23:55:25.852Z,10.38
